sensor_id;sensor_type;location;lat;lon;timestamp;temperature;humidity
56436;DHT22;42335;44.872;20.658;2023-03-14T00:01:39;179.30;1971.20
56436;DHT22;42335;44.872;20.658;2023-03-14T00:04:05;179.30;1971.20
56436;DHT22;42335;44.872;20.658;2023-03-14T00:06:31;179.30;1971.20
56436;DHT22;42335;44.872;20.658;2023-03-14T00:08:57;179.30;1971.20
56436;DHT22;42335;44.872;20.658;2023-03-14T00:11:22;179.30;1971.20
56436;DHT22;42335;44.872;20.658;2023-03-14T00:13:52;179.30;1971.20
56436;DHT22;42335;44.872;20.658;2023-03-14T00:16:19;179.30;1971.20
56436;DHT22;42335;44.872;20.658;2023-03-14T00:18:44;179.30;1971.20
56436;DHT22;42335;44.872;20.658;2023-03-14T00:21:11;179.30;1971.20
56436;DHT22;42335;44.872;20.658;2023-03-14T00:23:39;179.30;1971.20
56436;DHT22;42335;44.872;20.658;2023-03-14T00:26:13;179.40;1971.20
56436;DHT22;42335;44.872;20.658;2023-03-14T00:28:40;179.30;1971.20
56436;DHT22;42335;44.872;20.658;2023-03-14T00:31:07;179.30;1971.20
56436;DHT22;42335;44.872;20.658;2023-03-14T00:33:33;179.30;1971.20
56436;DHT22;42335;44.872;20.658;2023-03-14T00:36:02;179.30;1996.80
56436;DHT22;42335;44.872;20.658;2023-03-14T00:38:28;179.30;1996.80
56436;DHT22;42335;44.872;20.658;2023-03-14T00:40:54;179.40;1971.20
56436;DHT22;42335;44.872;20.658;2023-03-14T00:43:20;179.40;1971.20
56436;DHT22;42335;44.872;20.658;2023-03-14T00:45:49;179.30;1971.20
56436;DHT22;42335;44.872;20.658;2023-03-14T00:48:16;179.30;1996.80
56436;DHT22;42335;44.872;20.658;2023-03-14T00:50:41;179.30;1996.80
56436;DHT22;42335;44.872;20.658;2023-03-14T00:53:07;179.30;1996.80
56436;DHT22;42335;44.872;20.658;2023-03-14T00:55:37;179.30;1996.80
56436;DHT22;42335;44.872;20.658;2023-03-14T00:58:02;179.30;1996.80
56436;DHT22;42335;44.872;20.658;2023-03-14T01:00:28;179.30;1996.80
56436;DHT22;42335;44.872;20.658;2023-03-14T01:02:53;179.30;1996.80
56436;DHT22;42335;44.872;20.658;2023-03-14T01:05:21;179.20;1996.80
56436;DHT22;42335;44.872;20.658;2023-03-14T01:07:46;179.20;2022.40
56436;DHT22;42335;44.872;20.658;2023-03-14T01:10:12;179.20;2022.40
56436;DHT22;42335;44.872;20.658;2023-03-14T01:12:39;179.20;1996.80
56436;DHT22;42335;44.872;20.658;2023-03-14T01:15:06;179.30;1996.80
56436;DHT22;42335;44.872;20.658;2023-03-14T01:17:31;179.30;1996.80
56436;DHT22;42335;44.872;20.658;2023-03-14T01:19:57;179.40;1996.80
56436;DHT22;42335;44.872;20.658;2023-03-14T01:22:23;179.30;1996.80
56436;DHT22;42335;44.872;20.658;2023-03-14T01:24:48;179.20;1971.20
56436;DHT22;42335;44.872;20.658;2023-03-14T01:27:14;179.30;1971.20
56436;DHT22;42335;44.872;20.658;2023-03-14T01:29:40;179.30;1971.20
56436;DHT22;42335;44.872;20.658;2023-03-14T01:32:05;179.30;1971.20
56436;DHT22;42335;44.872;20.658;2023-03-14T01:34:31;179.30;1971.20
56436;DHT22;42335;44.872;20.658;2023-03-14T01:36:57;179.30;1971.20
56436;DHT22;42335;44.872;20.658;2023-03-14T01:39:22;179.40;1971.20
56436;DHT22;42335;44.872;20.658;2023-03-14T01:41:48;179.30;1971.20
56436;DHT22;42335;44.872;20.658;2023-03-14T01:44:14;179.30;1996.80
56436;DHT22;42335;44.872;20.658;2023-03-14T01:46:43;179.30;1971.20
56436;DHT22;42335;44.872;20.658;2023-03-14T01:49:20;179.30;1971.20
56436;DHT22;42335;44.872;20.658;2023-03-14T01:54:32;179.30;1996.80
56436;DHT22;42335;44.872;20.658;2023-03-14T01:59:34;179.30;1996.80
56436;DHT22;42335;44.872;20.658;2023-03-14T02:02:02;179.30;1996.80
56436;DHT22;42335;44.872;20.658;2023-03-14T02:04:41;179.30;1996.80
56436;DHT22;42335;44.872;20.658;2023-03-14T02:09:40;179.20;2022.40
56436;DHT22;42335;44.872;20.658;2023-03-14T02:12:08;179.20;2022.40
56436;DHT22;42335;44.872;20.658;2023-03-14T02:14:36;179.20;2022.40
56436;DHT22;42335;44.872;20.658;2023-03-14T02:17:03;179.30;2022.40
56436;DHT22;42335;44.872;20.658;2023-03-14T02:22:16;179.20;2022.40
56436;DHT22;42335;44.872;20.658;2023-03-14T02:27:16;179.20;2022.40
56436;DHT22;42335;44.872;20.658;2023-03-14T02:32:21;179.20;2048.00
56436;DHT22;42335;44.872;20.658;2023-03-14T02:34:51;179.20;2048.00
56436;DHT22;42335;44.872;20.658;2023-03-14T02:37:20;179.20;2048.00
56436;DHT22;42335;44.872;20.658;2023-03-14T02:39:47;179.20;2073.60
56436;DHT22;42335;44.872;20.658;2023-03-14T02:42:15;179.20;2099.20
56436;DHT22;42335;44.872;20.658;2023-03-14T02:44:57;154.50;2099.20
56436;DHT22;42335;44.872;20.658;2023-03-14T02:47:30;154.50;2099.20
56436;DHT22;42335;44.872;20.658;2023-03-14T02:50:05;154.50;2124.80
56436;DHT22;42335;44.872;20.658;2023-03-14T02:52:31;154.50;2124.80
56436;DHT22;42335;44.872;20.658;2023-03-14T02:54:57;154.50;2124.80
56436;DHT22;42335;44.872;20.658;2023-03-14T02:57:23;154.50;2124.80
56436;DHT22;42335;44.872;20.658;2023-03-14T02:59:48;179.20;2124.80
56436;DHT22;42335;44.872;20.658;2023-03-14T03:02:14;179.20;2124.80
56436;DHT22;42335;44.872;20.658;2023-03-14T03:04:40;154.50;2124.80
56436;DHT22;42335;44.872;20.658;2023-03-14T03:07:06;179.20;2124.80
56436;DHT22;42335;44.872;20.658;2023-03-14T03:09:32;154.50;2150.40
56436;DHT22;42335;44.872;20.658;2023-03-14T03:11:58;179.20;2124.80
56436;DHT22;42335;44.872;20.658;2023-03-14T03:14:24;179.20;2124.80
56436;DHT22;42335;44.872;20.658;2023-03-14T03:16:49;179.20;2124.80
56436;DHT22;42335;44.872;20.658;2023-03-14T03:19:15;154.50;2150.40
56436;DHT22;42335;44.872;20.658;2023-03-14T03:21:43;179.20;2124.80
56436;DHT22;42335;44.872;20.658;2023-03-14T03:24:09;179.20;2124.80
56436;DHT22;42335;44.872;20.658;2023-03-14T03:26:35;179.20;2124.80
56436;DHT22;42335;44.872;20.658;2023-03-14T03:29:01;179.20;2124.80
56436;DHT22;42335;44.872;20.658;2023-03-14T03:31:27;179.20;2124.80
56436;DHT22;42335;44.872;20.658;2023-03-14T03:33:53;179.20;2124.80
56436;DHT22;42335;44.872;20.658;2023-03-14T03:36:23;179.20;2124.80
56436;DHT22;42335;44.872;20.658;2023-03-14T03:38:49;179.30;2124.80
56436;DHT22;42335;44.872;20.658;2023-03-14T03:41:14;179.30;2124.80
56436;DHT22;42335;44.872;20.658;2023-03-14T03:43:40;179.20;2124.80
56436;DHT22;42335;44.872;20.658;2023-03-14T03:46:07;179.30;2124.80
56436;DHT22;42335;44.872;20.658;2023-03-14T03:48:33;179.30;2124.80
56436;DHT22;42335;44.872;20.658;2023-03-14T03:50:58;179.20;2150.40
56436;DHT22;42335;44.872;20.658;2023-03-14T03:53:24;154.50;2150.40
56436;DHT22;42335;44.872;20.658;2023-03-14T03:55:50;179.20;2150.40
56436;DHT22;42335;44.872;20.658;2023-03-14T03:58:16;179.20;2150.40
56436;DHT22;42335;44.872;20.658;2023-03-14T04:00:41;179.20;2150.40
56436;DHT22;42335;44.872;20.658;2023-03-14T04:03:07;179.20;2150.40
56436;DHT22;42335;44.872;20.658;2023-03-14T04:05:33;179.20;2150.40
56436;DHT22;42335;44.872;20.658;2023-03-14T04:08:00;179.20;2176.00
56436;DHT22;42335;44.872;20.658;2023-03-14T04:10:25;154.50;2201.60
56436;DHT22;42335;44.872;20.658;2023-03-14T04:12:51;154.50;2201.60
56436;DHT22;42335;44.872;20.658;2023-03-14T04:15:18;154.50;2201.60
56436;DHT22;42335;44.872;20.658;2023-03-14T04:17:43;154.50;2201.60
56436;DHT22;42335;44.872;20.658;2023-03-14T04:20:11;179.20;2201.60
56436;DHT22;42335;44.872;20.658;2023-03-14T04:22:38;154.50;2201.60
56436;DHT22;42335;44.872;20.658;2023-03-14T04:25:04;179.20;2201.60
56436;DHT22;42335;44.872;20.658;2023-03-14T04:27:30;154.50;2201.60
56436;DHT22;42335;44.872;20.658;2023-03-14T04:29:56;154.50;2201.60
56436;DHT22;42335;44.872;20.658;2023-03-14T04:32:21;154.50;2201.60
56436;DHT22;42335;44.872;20.658;2023-03-14T04:34:47;154.50;2201.60
56436;DHT22;42335;44.872;20.658;2023-03-14T04:37:13;179.20;2201.60
56436;DHT22;42335;44.872;20.658;2023-03-14T04:39:38;179.20;2201.60
56436;DHT22;42335;44.872;20.658;2023-03-14T04:42:04;179.20;2176.00
56436;DHT22;42335;44.872;20.658;2023-03-14T04:44:30;179.20;2176.00
56436;DHT22;42335;44.872;20.658;2023-03-14T04:46:55;179.20;2176.00
56436;DHT22;42335;44.872;20.658;2023-03-14T04:49:21;179.20;2176.00
56436;DHT22;42335;44.872;20.658;2023-03-14T04:51:47;179.20;2201.60
56436;DHT22;42335;44.872;20.658;2023-03-14T04:54:12;154.50;2176.00
56436;DHT22;42335;44.872;20.658;2023-03-14T04:56:38;179.20;2176.00
56436;DHT22;42335;44.872;20.658;2023-03-14T04:59:04;179.20;2176.00
56436;DHT22;42335;44.872;20.658;2023-03-14T05:01:30;179.20;2176.00
56436;DHT22;42335;44.872;20.658;2023-03-14T05:03:56;179.20;2150.40
56436;DHT22;42335;44.872;20.658;2023-03-14T05:06:21;179.20;2176.00
56436;DHT22;42335;44.872;20.658;2023-03-14T05:08:47;179.30;2150.40
56436;DHT22;42335;44.872;20.658;2023-03-14T05:11:13;179.20;2176.00
56436;DHT22;42335;44.872;20.658;2023-03-14T05:13:39;179.30;2150.40
56436;DHT22;42335;44.872;20.658;2023-03-14T05:16:07;179.70;2150.40
56436;DHT22;42335;44.872;20.658;2023-03-14T05:18:33;179.50;2099.20
56436;DHT22;42335;44.872;20.658;2023-03-14T05:20:59;179.50;2099.20
56436;DHT22;42335;44.872;20.658;2023-03-14T05:23:25;179.60;2073.60
56436;DHT22;42335;44.872;20.658;2023-03-14T05:25:50;179.70;2073.60
56436;DHT22;42335;44.872;20.658;2023-03-14T05:28:16;179.70;2048.00
56436;DHT22;42335;44.872;20.658;2023-03-14T05:30:42;179.80;2048.00
56436;DHT22;42335;44.872;20.658;2023-03-14T05:33:07;179.80;2048.00
56436;DHT22;42335;44.872;20.658;2023-03-14T05:35:33;179.90;2022.40
56436;DHT22;42335;44.872;20.658;2023-03-14T05:37:59;179.90;2022.40
56436;DHT22;42335;44.872;20.658;2023-03-14T05:40:25;180.00;2022.40
56436;DHT22;42335;44.872;20.658;2023-03-14T05:42:51;180.00;2022.40
56436;DHT22;42335;44.872;20.658;2023-03-14T05:45:17;180.10;2022.40
56436;DHT22;42335;44.872;20.658;2023-03-14T05:47:43;180.10;1996.80
56436;DHT22;42335;44.872;20.658;2023-03-14T05:50:09;204.80;1996.80
56436;DHT22;42335;44.872;20.658;2023-03-14T05:52:35;204.80;1996.80
56436;DHT22;42335;44.872;20.658;2023-03-14T05:55:01;204.90;1971.20
56436;DHT22;42335;44.872;20.658;2023-03-14T05:57:27;205.00;1971.20
56436;DHT22;42335;44.872;20.658;2023-03-14T05:59:53;205.10;1971.20
56436;DHT22;42335;44.872;20.658;2023-03-14T06:02:18;205.10;1945.60
56436;DHT22;42335;44.872;20.658;2023-03-14T06:04:44;205.20;1945.60
56436;DHT22;42335;44.872;20.658;2023-03-14T06:07:10;205.20;1945.60
56436;DHT22;42335;44.872;20.658;2023-03-14T06:09:35;205.20;1945.60
56436;DHT22;42335;44.872;20.658;2023-03-14T06:12:01;205.30;1920.00
56436;DHT22;42335;44.872;20.658;2023-03-14T06:14:27;205.40;1920.00
56436;DHT22;42335;44.872;20.658;2023-03-14T06:16:52;205.50;1894.40
56436;DHT22;42335;44.872;20.658;2023-03-14T06:19:18;205.60;1894.40
56436;DHT22;42335;44.872;20.658;2023-03-14T06:21:44;205.70;1868.80
56436;DHT22;42335;44.872;20.658;2023-03-14T06:24:10;205.70;1843.20
56436;DHT22;42335;44.872;20.658;2023-03-14T06:26:35;230.40;1817.60
56436;DHT22;42335;44.872;20.658;2023-03-14T06:29:01;230.60;1792.00
56436;DHT22;42335;44.872;20.658;2023-03-14T06:31:30;230.70;1792.00
56436;DHT22;42335;44.872;20.658;2023-03-14T06:33:56;230.90;1766.40
56436;DHT22;42335;44.872;20.658;2023-03-14T06:36:22;231.00;1766.40
56436;DHT22;42335;44.872;20.658;2023-03-14T06:38:48;231.10;1740.80
56436;DHT22;42335;44.872;20.658;2023-03-14T06:41:13;231.30;1715.20
56436;DHT22;42335;44.872;20.658;2023-03-14T06:43:39;256.20;1689.60
56436;DHT22;42335;44.872;20.658;2023-03-14T06:46:05;256.30;1689.60
56436;DHT22;42335;44.872;20.658;2023-03-14T06:48:31;256.50;1689.60
56436;DHT22;42335;44.872;20.658;2023-03-14T06:50:57;256.70;1664.00
56436;DHT22;42335;44.872;20.658;2023-03-14T06:53:23;256.90;1612.80
56436;DHT22;42335;44.872;20.658;2023-03-14T06:55:49;281.60;1638.40
56436;DHT22;42335;44.872;20.658;2023-03-14T06:58:14;281.80;1612.80
56436;DHT22;42335;44.872;20.658;2023-03-14T07:00:40;282.00;1587.20
56436;DHT22;42335;44.872;20.658;2023-03-14T07:03:06;281.90;1612.80
56436;DHT22;42335;44.872;20.658;2023-03-14T07:05:31;281.80;1587.20
56436;DHT22;42335;44.872;20.658;2023-03-14T07:07:57;281.90;1587.20
56436;DHT22;42335;44.872;20.658;2023-03-14T07:10:23;282.00;1561.60
56436;DHT22;42335;44.872;20.658;2023-03-14T07:12:48;282.00;1587.20
56436;DHT22;42335;44.872;20.658;2023-03-14T07:15:17;282.00;1561.60
56436;DHT22;42335;44.872;20.658;2023-03-14T07:17:43;282.00;1561.60
56436;DHT22;42335;44.872;20.658;2023-03-14T07:20:09;282.00;1561.60
56436;DHT22;42335;44.872;20.658;2023-03-14T07:22:35;282.00;1561.60
56436;DHT22;42335;44.872;20.658;2023-03-14T07:25:00;282.20;1561.60
56436;DHT22;42335;44.872;20.658;2023-03-14T07:27:26;282.20;1536.00
56436;DHT22;42335;44.872;20.658;2023-03-14T07:29:52;282.10;1561.60
56436;DHT22;42335;44.872;20.658;2023-03-14T07:32:17;282.40;1536.00
56436;DHT22;42335;44.872;20.658;2023-03-14T07:34:43;282.40;1536.00
56436;DHT22;42335;44.872;20.658;2023-03-14T07:37:09;282.50;1536.00
56436;DHT22;42335;44.872;20.658;2023-03-14T07:39:35;282.50;1510.40
56436;DHT22;42335;44.872;20.658;2023-03-14T07:42:01;307.20;1536.00
56436;DHT22;42335;44.872;20.658;2023-03-14T07:44:27;307.40;1536.00
56436;DHT22;42335;44.872;20.658;2023-03-14T07:46:53;307.40;1536.00
56436;DHT22;42335;44.872;20.658;2023-03-14T07:49:19;307.60;1510.40
56436;DHT22;42335;44.872;20.658;2023-03-14T07:51:49;307.50;1510.40
56436;DHT22;42335;44.872;20.658;2023-03-14T07:54:15;307.60;1510.40
56436;DHT22;42335;44.872;20.658;2023-03-14T07:56:41;307.60;1510.40
56436;DHT22;42335;44.872;20.658;2023-03-14T07:59:08;307.70;1484.80
56436;DHT22;42335;44.872;20.658;2023-03-14T08:01:34;307.70;1459.20
56436;DHT22;42335;44.872;20.658;2023-03-14T08:04:00;307.90;1459.20
56436;DHT22;42335;44.872;20.658;2023-03-14T08:06:26;308.00;1433.60
56436;DHT22;42335;44.872;20.658;2023-03-14T08:08:52;308.10;1433.60
56436;DHT22;42335;44.872;20.658;2023-03-14T08:11:18;332.90;1433.60
56436;DHT22;42335;44.872;20.658;2023-03-14T08:13:43;333.10;1433.60
56436;DHT22;42335;44.872;20.658;2023-03-14T08:16:16;333.30;1408.00
56436;DHT22;42335;44.872;20.658;2023-03-14T08:18:42;333.40;1408.00
56436;DHT22;42335;44.872;20.658;2023-03-14T08:21:08;333.40;1382.40
56436;DHT22;42335;44.872;20.658;2023-03-14T08:23:34;333.60;1382.40
56436;DHT22;42335;44.872;20.658;2023-03-14T08:26:00;333.70;1356.80
56436;DHT22;42335;44.872;20.658;2023-03-14T08:28:25;358.40;1356.80
56436;DHT22;42335;44.872;20.658;2023-03-14T08:30:56;358.50;1331.20
56436;DHT22;42335;44.872;20.658;2023-03-14T08:33:22;358.70;1331.20
56436;DHT22;42335;44.872;20.658;2023-03-14T08:35:51;358.70;1305.60
56436;DHT22;42335;44.872;20.658;2023-03-14T08:38:16;358.80;1280.00
56436;DHT22;42335;44.872;20.658;2023-03-14T08:40:42;358.80;1254.40
56436;DHT22;42335;44.872;20.658;2023-03-14T08:43:08;358.80;1254.40
56436;DHT22;42335;44.872;20.658;2023-03-14T08:45:33;358.90;1228.80
56436;DHT22;42335;44.872;20.658;2023-03-14T08:47:59;358.90;1228.80
56436;DHT22;42335;44.872;20.658;2023-03-14T08:50:25;358.80;1228.80
56436;DHT22;42335;44.872;20.658;2023-03-14T08:52:51;358.90;1228.80
56436;DHT22;42335;44.872;20.658;2023-03-14T08:55:17;358.90;1228.80
56436;DHT22;42335;44.872;20.658;2023-03-14T08:57:42;358.90;1228.80
56436;DHT22;42335;44.872;20.658;2023-03-14T09:00:09;358.90;1228.80
56436;DHT22;42335;44.872;20.658;2023-03-14T09:02:38;358.80;1228.80
56436;DHT22;42335;44.872;20.658;2023-03-14T09:05:04;358.90;1228.80
56436;DHT22;42335;44.872;20.658;2023-03-14T09:07:30;358.90;1228.80
56436;DHT22;42335;44.872;20.658;2023-03-14T09:09:56;359.00;1228.80
56436;DHT22;42335;44.872;20.658;2023-03-14T09:12:23;359.10;1228.80
56436;DHT22;42335;44.872;20.658;2023-03-14T09:14:49;359.10;1228.80
56436;DHT22;42335;44.872;20.658;2023-03-14T09:17:14;359.10;1228.80
56436;DHT22;42335;44.872;20.658;2023-03-14T09:19:40;359.20;1228.80
56436;DHT22;42335;44.872;20.658;2023-03-14T09:22:08;359.20;1203.20
56436;DHT22;42335;44.872;20.658;2023-03-14T09:24:33;384.00;1177.60
56436;DHT22;42335;44.872;20.658;2023-03-14T09:26:59;384.00;1177.60
56436;DHT22;42335;44.872;20.658;2023-03-14T09:29:25;384.10;1177.60
56436;DHT22;42335;44.872;20.658;2023-03-14T09:31:51;384.10;1152.00
56436;DHT22;42335;44.872;20.658;2023-03-14T09:34:17;384.30;1152.00
56436;DHT22;42335;44.872;20.658;2023-03-14T09:36:43;384.40;1152.00
56436;DHT22;42335;44.872;20.658;2023-03-14T09:39:10;384.70;1126.40
56436;DHT22;42335;44.872;20.658;2023-03-14T09:41:39;409.60;1126.40
56436;DHT22;42335;44.872;20.658;2023-03-14T09:44:16;410.10;1075.20
56436;DHT22;42335;44.872;20.658;2023-03-14T09:46:45;410.50;1075.20
56436;DHT22;42335;44.872;20.658;2023-03-14T09:51:46;435.50;1024.00
56436;DHT22;42335;44.872;20.658;2023-03-14T09:54:37;436.10;1024.00
56436;DHT22;42335;44.872;20.658;2023-03-14T09:57:05;461.30;1024.00
56436;DHT22;42335;44.872;20.658;2023-03-14T09:59:31;461.60;998.40
56436;DHT22;42335;44.872;20.658;2023-03-14T10:02:24;486.40;1024.00
56436;DHT22;42335;44.872;20.658;2023-03-14T10:04:52;461.70;1024.00
56436;DHT22;42335;44.872;20.658;2023-03-14T10:07:25;486.90;998.40
56436;DHT22;42335;44.872;20.658;2023-03-14T10:09:52;512.50;947.20
56436;DHT22;42335;44.872;20.658;2023-03-14T10:12:18;537.60;947.20
56436;DHT22;42335;44.872;20.658;2023-03-14T10:14:48;537.80;947.20
56436;DHT22;42335;44.872;20.658;2023-03-14T10:17:15;512.60;947.20
56436;DHT22;42335;44.872;20.658;2023-03-14T10:19:58;512.70;947.20
56436;DHT22;42335;44.872;20.658;2023-03-14T10:22:29;512.90;921.60
56436;DHT22;42335;44.872;20.658;2023-03-14T10:24:57;537.70;947.20
56436;DHT22;42335;44.872;20.658;2023-03-14T10:27:35;512.90;921.60
56436;DHT22;42335;44.872;20.658;2023-03-14T10:30:06;512.90;921.60
56436;DHT22;42335;44.872;20.658;2023-03-14T10:32:37;537.60;947.20
56436;DHT22;42335;44.872;20.658;2023-03-14T10:40:19;538.40;896.00
56436;DHT22;42335;44.872;20.658;2023-03-14T10:42:46;538.30;896.00
56436;DHT22;42335;44.872;20.658;2023-03-14T10:48:23;538.40;870.40
56436;DHT22;42335;44.872;20.658;2023-03-14T10:51:11;538.50;870.40
56436;DHT22;42335;44.872;20.658;2023-03-14T10:53:49;563.40;870.40
56436;DHT22;42335;44.872;20.658;2023-03-14T10:56:19;564.10;870.40
56436;DHT22;42335;44.872;20.658;2023-03-14T10:58:50;589.60;819.20
56436;DHT22;42335;44.872;20.658;2023-03-14T11:14:28;691.90;742.40
56436;DHT22;42335;44.872;20.658;2023-03-14T11:17:07;716.90;742.40
56436;DHT22;42335;44.872;20.658;2023-03-14T11:30:30;692.00;691.20
56436;DHT22;42335;44.872;20.658;2023-03-14T11:33:05;691.90;691.20
56436;DHT22;42335;44.872;20.658;2023-03-14T11:35:47;691.70;691.20
56436;DHT22;42335;44.872;20.658;2023-03-14T11:56:43;614.80;793.60
56436;DHT22;42335;44.872;20.658;2023-03-14T11:59:44;589.20;793.60
56436;DHT22;42335;44.872;20.658;2023-03-14T12:02:48;588.90;844.80
56436;DHT22;42335;44.872;20.658;2023-03-14T12:23:03;563.20;870.40
56436;DHT22;42335;44.872;20.658;2023-03-14T12:25:32;538.30;844.80
56436;DHT22;42335;44.872;20.658;2023-03-14T12:28:20;538.30;844.80
56436;DHT22;42335;44.872;20.658;2023-03-14T12:30:46;538.50;844.80
56436;DHT22;42335;44.872;20.658;2023-03-14T12:33:20;538.50;870.40
56436;DHT22;42335;44.872;20.658;2023-03-14T12:35:59;538.30;870.40
56436;DHT22;42335;44.872;20.658;2023-03-14T12:38:52;538.50;870.40
56436;DHT22;42335;44.872;20.658;2023-03-14T12:41:36;563.40;870.40
56436;DHT22;42335;44.872;20.658;2023-03-14T12:46:54;563.50;870.40
56436;DHT22;42335;44.872;20.658;2023-03-14T12:49:21;563.70;870.40
56436;DHT22;42335;44.872;20.658;2023-03-14T12:51:59;563.80;844.80
56436;DHT22;42335;44.872;20.658;2023-03-14T13:02:43;563.50;870.40
56436;DHT22;42335;44.872;20.658;2023-03-14T13:05:22;564.00;844.80
56436;DHT22;42335;44.872;20.658;2023-03-14T13:10:23;564.10;870.40
56436;DHT22;42335;44.872;20.658;2023-03-14T13:15:44;564.10;870.40
56436;DHT22;42335;44.872;20.658;2023-03-14T13:18:36;563.90;844.80
56436;DHT22;42335;44.872;20.658;2023-03-14T13:24:24;563.70;870.40
56436;DHT22;42335;44.872;20.658;2023-03-14T13:26:54;563.30;870.40
56436;DHT22;42335;44.872;20.658;2023-03-14T13:29:31;538.50;844.80
56436;DHT22;42335;44.872;20.658;2023-03-14T13:32:01;538.30;844.80
56436;DHT22;42335;44.872;20.658;2023-03-14T13:34:34;538.10;870.40
56436;DHT22;42335;44.872;20.658;2023-03-14T13:37:00;537.90;896.00
56436;DHT22;42335;44.872;20.658;2023-03-14T13:39:27;537.70;896.00
56436;DHT22;42335;44.872;20.658;2023-03-14T13:41:58;512.90;870.40
56436;DHT22;42335;44.872;20.658;2023-03-14T13:44:36;512.80;896.00
56436;DHT22;42335;44.872;20.658;2023-03-14T13:47:09;512.90;896.00
56436;DHT22;42335;44.872;20.658;2023-03-14T13:49:37;512.90;896.00
56436;DHT22;42335;44.872;20.658;2023-03-14T13:52:03;512.90;870.40
56436;DHT22;42335;44.872;20.658;2023-03-14T13:54:31;512.90;896.00
56436;DHT22;42335;44.872;20.658;2023-03-14T13:57:05;512.90;896.00
56436;DHT22;42335;44.872;20.658;2023-03-14T13:59:33;512.90;896.00
56436;DHT22;42335;44.872;20.658;2023-03-14T14:02:03;512.80;921.60
56436;DHT22;42335;44.872;20.658;2023-03-14T14:04:32;512.80;921.60
56436;DHT22;42335;44.872;20.658;2023-03-14T14:07:00;512.80;921.60
56436;DHT22;42335;44.872;20.658;2023-03-14T14:09:37;512.70;921.60
56436;DHT22;42335;44.872;20.658;2023-03-14T14:12:08;512.70;921.60
56436;DHT22;42335;44.872;20.658;2023-03-14T14:14:45;512.70;921.60
56436;DHT22;42335;44.872;20.658;2023-03-14T14:17:17;512.80;921.60
56436;DHT22;42335;44.872;20.658;2023-03-14T14:19:44;512.90;921.60
56436;DHT22;42335;44.872;20.658;2023-03-14T14:22:10;512.90;947.20
56436;DHT22;42335;44.872;20.658;2023-03-14T14:24:37;512.70;947.20
56436;DHT22;42335;44.872;20.658;2023-03-14T14:27:18;512.60;947.20
56436;DHT22;42335;44.872;20.658;2023-03-14T14:29:57;512.50;947.20
56436;DHT22;42335;44.872;20.658;2023-03-14T14:32:23;512.50;947.20
56436;DHT22;42335;44.872;20.658;2023-03-14T14:34:58;512.40;972.80
56436;DHT22;42335;44.872;20.658;2023-03-14T14:37:35;512.30;972.80
56436;DHT22;42335;44.872;20.658;2023-03-14T14:42:40;487.20;972.80
56436;DHT22;42335;44.872;20.658;2023-03-14T14:45:12;487.10;998.40
56436;DHT22;42335;44.872;20.658;2023-03-14T14:47:58;487.00;1024.00
56436;DHT22;42335;44.872;20.658;2023-03-14T14:50:33;487.00;1049.60
56436;DHT22;42335;44.872;20.658;2023-03-14T14:55:40;486.90;1049.60
56436;DHT22;42335;44.872;20.658;2023-03-14T14:58:35;486.90;1075.20
56436;DHT22;42335;44.872;20.658;2023-03-14T15:01:24;486.70;1075.20
56436;DHT22;42335;44.872;20.658;2023-03-14T15:03:53;486.50;1100.80
56436;DHT22;42335;44.872;20.658;2023-03-14T15:06:20;486.40;1100.80
56436;DHT22;42335;44.872;20.658;2023-03-14T15:08:47;461.70;1100.80
56436;DHT22;42335;44.872;20.658;2023-03-14T15:11:19;461.70;1100.80
56436;DHT22;42335;44.872;20.658;2023-03-14T15:13:44;486.40;1100.80
56436;DHT22;42335;44.872;20.658;2023-03-14T15:16:12;486.60;1100.80
56436;DHT22;42335;44.872;20.658;2023-03-14T15:18:38;486.90;1075.20
56436;DHT22;42335;44.872;20.658;2023-03-14T15:21:04;486.90;1075.20
56436;DHT22;42335;44.872;20.658;2023-03-14T15:23:29;487.00;1049.60
56436;DHT22;42335;44.872;20.658;2023-03-14T15:25:55;487.10;1075.20
56436;DHT22;42335;44.872;20.658;2023-03-14T15:28:23;487.20;1075.20
56436;DHT22;42335;44.872;20.658;2023-03-14T15:30:52;486.90;1075.20
56436;DHT22;42335;44.872;20.658;2023-03-14T15:33:18;487.10;1075.20
56436;DHT22;42335;44.872;20.658;2023-03-14T15:35:44;487.00;1100.80
56436;DHT22;42335;44.872;20.658;2023-03-14T15:38:14;487.00;1100.80
56436;DHT22;42335;44.872;20.658;2023-03-14T15:40:41;487.00;1100.80
56436;DHT22;42335;44.872;20.658;2023-03-14T15:43:07;486.90;1100.80
56436;DHT22;42335;44.872;20.658;2023-03-14T15:45:33;486.80;1100.80
56436;DHT22;42335;44.872;20.658;2023-03-14T15:47:59;486.70;1100.80
56436;DHT22;42335;44.872;20.658;2023-03-14T15:50:24;486.60;1100.80
56436;DHT22;42335;44.872;20.658;2023-03-14T15:52:51;461.70;1126.40
56436;DHT22;42335;44.872;20.658;2023-03-14T15:55:17;461.60;1126.40
56436;DHT22;42335;44.872;20.658;2023-03-14T15:57:44;461.50;1126.40
56436;DHT22;42335;44.872;20.658;2023-03-14T16:00:17;461.30;1126.40
56436;DHT22;42335;44.872;20.658;2023-03-14T16:02:44;460.80;1152.00
56436;DHT22;42335;44.872;20.658;2023-03-14T16:05:11;460.90;1152.00
56436;DHT22;42335;44.872;20.658;2023-03-14T16:07:38;436.00;1152.00
56436;DHT22;42335;44.872;20.658;2023-03-14T16:10:05;435.80;1177.60
56436;DHT22;42335;44.872;20.658;2023-03-14T16:12:33;435.60;1177.60
56436;DHT22;42335;44.872;20.658;2023-03-14T16:14:59;435.40;1177.60
56436;DHT22;42335;44.872;20.658;2023-03-14T16:17:26;435.40;1203.20
56436;DHT22;42335;44.872;20.658;2023-03-14T16:19:52;410.50;1203.20
56436;DHT22;42335;44.872;20.658;2023-03-14T16:22:18;410.50;1228.80
56436;DHT22;42335;44.872;20.658;2023-03-14T16:24:44;410.20;1228.80
56436;DHT22;42335;44.872;20.658;2023-03-14T16:27:10;410.10;1254.40
56436;DHT22;42335;44.872;20.658;2023-03-14T16:29:36;409.90;1280.00
56436;DHT22;42335;44.872;20.658;2023-03-14T16:32:02;409.80;1280.00
56436;DHT22;42335;44.872;20.658;2023-03-14T16:34:31;409.70;1280.00
56436;DHT22;42335;44.872;20.658;2023-03-14T16:36:56;384.90;1280.00